sensor_id;sensor_type;location;lat;lon;timestamp;temperature;humidity
11840;DHT22;5979;50.800;4.904;2023-07-08T00:00:54;19.50;99.90
11840;DHT22;5979;50.800;4.904;2023-07-08T00:03:20;19.50;99.90
11840;DHT22;5979;50.800;4.904;2023-07-08T00:05:47;19.50;99.90
11840;DHT22;5979;50.800;4.904;2023-07-08T00:08:14;19.50;99.90
11840;DHT22;5979;50.800;4.904;2023-07-08T00:10:40;19.50;99.90
11840;DHT22;5979;50.800;4.904;2023-07-08T00:13:08;19.40;99.90
11840;DHT22;5979;50.800;4.904;2023-07-08T00:15:34;19.40;99.90
11840;DHT22;5979;50.800;4.904;2023-07-08T00:18:13;19.40;99.90
11840;DHT22;5979;50.800;4.904;2023-07-08T00:20:43;19.20;99.90
11840;DHT22;5979;50.800;4.904;2023-07-08T00:23:10;19.10;99.90
11840;DHT22;5979;50.800;4.904;2023-07-08T00:25:36;19.00;99.90
11840;DHT22;5979;50.800;4.904;2023-07-08T00:28:12;18.90;99.90
11840;DHT22;5979;50.800;4.904;2023-07-08T00:30:39;18.90;99.90
11840;DHT22;5979;50.800;4.904;2023-07-08T00:33:05;18.90;99.90
11840;DHT22;5979;50.800;4.904;2023-07-08T00:35:39;18.90;99.90
11840;DHT22;5979;50.800;4.904;2023-07-08T00:38:17;18.90;99.90
11840;DHT22;5979;50.800;4.904;2023-07-08T00:43:40;18.90;99.90
11840;DHT22;5979;50.800;4.904;2023-07-08T00:51:33;19.00;99.90
11840;DHT22;5979;50.800;4.904;2023-07-08T00:53:59;18.90;99.90
11840;DHT22;5979;50.800;4.904;2023-07-08T00:58:58;18.90;99.90
11840;DHT22;5979;50.800;4.904;2023-07-08T01:01:27;18.90;99.90
11840;DHT22;5979;50.800;4.904;2023-07-08T01:03:54;18.80;99.90
11840;DHT22;5979;50.800;4.904;2023-07-08T01:06:22;18.80;99.90
11840;DHT22;5979;50.800;4.904;2023-07-08T01:09:02;18.80;99.90
11840;DHT22;5979;50.800;4.904;2023-07-08T01:11:29;18.80;99.90
11840;DHT22;5979;50.800;4.904;2023-07-08T01:13:55;18.70;99.90
11840;DHT22;5979;50.800;4.904;2023-07-08T01:16:22;18.70;99.90
11840;DHT22;5979;50.800;4.904;2023-07-08T01:18:48;18.60;99.90
11840;DHT22;5979;50.800;4.904;2023-07-08T01:21:38;18.60;99.90
11840;DHT22;5979;50.800;4.904;2023-07-08T01:24:07;18.70;99.90
11840;DHT22;5979;50.800;4.904;2023-07-08T01:26:40;18.60;99.90
11840;DHT22;5979;50.800;4.904;2023-07-08T01:29:07;18.60;99.90
11840;DHT22;5979;50.800;4.904;2023-07-08T01:31:33;18.60;99.90
11840;DHT22;5979;50.800;4.904;2023-07-08T01:34:00;18.60;99.90
11840;DHT22;5979;50.800;4.904;2023-07-08T01:36:37;18.60;99.90
11840;DHT22;5979;50.800;4.904;2023-07-08T01:39:04;18.60;99.90
11840;DHT22;5979;50.800;4.904;2023-07-08T01:41:30;18.50;99.90
11840;DHT22;5979;50.800;4.904;2023-07-08T01:43:56;18.50;99.90
11840;DHT22;5979;50.800;4.904;2023-07-08T01:46:26;18.40;99.90
11840;DHT22;5979;50.800;4.904;2023-07-08T01:48:56;18.40;99.90
11840;DHT22;5979;50.800;4.904;2023-07-08T01:51:23;18.40;99.90
11840;DHT22;5979;50.800;4.904;2023-07-08T01:53:50;18.40;99.90
11840;DHT22;5979;50.800;4.904;2023-07-08T01:56:15;18.30;99.90
11840;DHT22;5979;50.800;4.904;2023-07-08T01:58:41;18.30;99.90
11840;DHT22;5979;50.800;4.904;2023-07-08T02:01:08;18.20;99.90
11840;DHT22;5979;50.800;4.904;2023-07-08T02:03:34;18.20;99.90
11840;DHT22;5979;50.800;4.904;2023-07-08T02:05:59;18.20;99.90
11840;DHT22;5979;50.800;4.904;2023-07-08T02:08:26;18.20;99.90
11840;DHT22;5979;50.800;4.904;2023-07-08T02:10:58;18.10;99.90
11840;DHT22;5979;50.800;4.904;2023-07-08T02:13:24;18.10;99.90
11840;DHT22;5979;50.800;4.904;2023-07-08T02:15:50;18.10;99.90
11840;DHT22;5979;50.800;4.904;2023-07-08T02:18:17;18.10;99.90
11840;DHT22;5979;50.800;4.904;2023-07-08T02:20:44;18.10;99.90
11840;DHT22;5979;50.800;4.904;2023-07-08T02:23:10;18.10;99.90
11840;DHT22;5979;50.800;4.904;2023-07-08T02:25:36;18.00;99.90
11840;DHT22;5979;50.800;4.904;2023-07-08T02:28:02;18.00;99.90
11840;DHT22;5979;50.800;4.904;2023-07-08T02:30:28;18.00;99.90
11840;DHT22;5979;50.800;4.904;2023-07-08T02:32:54;17.90;99.90
11840;DHT22;5979;50.800;4.904;2023-07-08T02:35:29;17.90;99.90
11840;DHT22;5979;50.800;4.904;2023-07-08T02:37:56;17.90;99.90
11840;DHT22;5979;50.800;4.904;2023-07-08T02:40:23;17.90;99.90
11840;DHT22;5979;50.800;4.904;2023-07-08T02:42:49;17.80;99.90
11840;DHT22;5979;50.800;4.904;2023-07-08T02:45:16;17.80;99.90
11840;DHT22;5979;50.800;4.904;2023-07-08T02:47:42;17.80;99.90
11840;DHT22;5979;50.800;4.904;2023-07-08T02:50:09;17.80;99.90
11840;DHT22;5979;50.800;4.904;2023-07-08T02:52:35;17.80;99.90
11840;DHT22;5979;50.800;4.904;2023-07-08T02:55:02;17.80;99.90
11840;DHT22;5979;50.800;4.904;2023-07-08T02:57:27;17.90;99.90
11840;DHT22;5979;50.800;4.904;2023-07-08T02:59:53;17.90;99.90
11840;DHT22;5979;50.800;4.904;2023-07-08T03:02:20;17.80;99.90
11840;DHT22;5979;50.800;4.904;2023-07-08T03:04:46;17.80;99.90
11840;DHT22;5979;50.800;4.904;2023-07-08T03:07:11;17.90;99.90
11840;DHT22;5979;50.800;4.904;2023-07-08T03:09:41;17.90;99.90
11840;DHT22;5979;50.800;4.904;2023-07-08T03:12:10;17.90;99.90
11840;DHT22;5979;50.800;4.904;2023-07-08T03:14:36;17.90;99.90
11840;DHT22;5979;50.800;4.904;2023-07-08T03:17:03;17.90;99.90
11840;DHT22;5979;50.800;4.904;2023-07-08T03:19:28;17.90;99.90
11840;DHT22;5979;50.800;4.904;2023-07-08T03:21:54;17.90;99.90
11840;DHT22;5979;50.800;4.904;2023-07-08T03:24:20;17.90;99.90
11840;DHT22;5979;50.800;4.904;2023-07-08T03:26:46;17.90;99.90
11840;DHT22;5979;50.800;4.904;2023-07-08T03:29:15;17.90;99.90
11840;DHT22;5979;50.800;4.904;2023-07-08T03:31:41;17.90;99.90
11840;DHT22;5979;50.800;4.904;2023-07-08T03:34:11;17.90;99.90
11840;DHT22;5979;50.800;4.904;2023-07-08T03:36:49;17.90;99.90
11840;DHT22;5979;50.800;4.904;2023-07-08T03:39:20;17.90;99.90
11840;DHT22;5979;50.800;4.904;2023-07-08T03:41:45;17.80;99.90
11840;DHT22;5979;50.800;4.904;2023-07-08T03:44:12;17.80;99.90
11840;DHT22;5979;50.800;4.904;2023-07-08T03:46:38;17.80;99.90
11840;DHT22;5979;50.800;4.904;2023-07-08T03:49:05;17.80;99.90
11840;DHT22;5979;50.800;4.904;2023-07-08T03:51:37;17.80;99.90
11840;DHT22;5979;50.800;4.904;2023-07-08T03:54:05;17.80;99.90
11840;DHT22;5979;50.800;4.904;2023-07-08T03:56:31;17.70;99.90
11840;DHT22;5979;50.800;4.904;2023-07-08T03:58:56;17.70;99.90
11840;DHT22;5979;50.800;4.904;2023-07-08T04:01:23;17.70;99.90
11840;DHT22;5979;50.800;4.904;2023-07-08T04:03:55;17.70;99.90
11840;DHT22;5979;50.800;4.904;2023-07-08T04:06:22;17.70;99.90
11840;DHT22;5979;50.800;4.904;2023-07-08T04:08:48;17.80;99.90
11840;DHT22;5979;50.800;4.904;2023-07-08T04:11:15;17.80;99.90
11840;DHT22;5979;50.800;4.904;2023-07-08T04:13:41;17.90;99.90
11840;DHT22;5979;50.800;4.904;2023-07-08T04:16:09;17.90;99.90
11840;DHT22;5979;50.800;4.904;2023-07-08T04:18:38;18.00;99.90
11840;DHT22;5979;50.800;4.904;2023-07-08T04:21:03;18.00;99.90
11840;DHT22;5979;50.800;4.904;2023-07-08T04:23:29;18.10;99.90
11840;DHT22;5979;50.800;4.904;2023-07-08T04:25:56;18.10;99.90
11840;DHT22;5979;50.800;4.904;2023-07-08T04:28:22;18.40;99.90
11840;DHT22;5979;50.800;4.904;2023-07-08T04:30:48;18.70;99.90
11840;DHT22;5979;50.800;4.904;2023-07-08T04:33:14;19.10;99.90
11840;DHT22;5979;50.800;4.904;2023-07-08T04:35:41;19.50;99.90
11840;DHT22;5979;50.800;4.904;2023-07-08T04:38:20;20.00;99.90
11840;DHT22;5979;50.800;4.904;2023-07-08T04:40:47;20.50;99.90
11840;DHT22;5979;50.800;4.904;2023-07-08T04:43:13;21.00;99.90
11840;DHT22;5979;50.800;4.904;2023-07-08T04:45:41;21.50;99.90
11840;DHT22;5979;50.800;4.904;2023-07-08T04:48:12;21.90;99.90
11840;DHT22;5979;50.800;4.904;2023-07-08T04:50:42;22.30;99.90
11840;DHT22;5979;50.800;4.904;2023-07-08T04:53:09;22.70;99.90
11840;DHT22;5979;50.800;4.904;2023-07-08T04:55:36;23.10;99.90
11840;DHT22;5979;50.800;4.904;2023-07-08T04:58:03;23.40;99.90
11840;DHT22;5979;50.800;4.904;2023-07-08T05:00:29;23.70;99.90
11840;DHT22;5979;50.800;4.904;2023-07-08T05:02:55;24.00;99.90
11840;DHT22;5979;50.800;4.904;2023-07-08T05:05:21;24.30;99.90
11840;DHT22;5979;50.800;4.904;2023-07-08T05:07:46;24.50;99.90
11840;DHT22;5979;50.800;4.904;2023-07-08T05:10:15;24.80;99.90
11840;DHT22;5979;50.800;4.904;2023-07-08T05:12:41;25.00;99.90
11840;DHT22;5979;50.800;4.904;2023-07-08T05:15:07;25.10;99.90
11840;DHT22;5979;50.800;4.904;2023-07-08T05:17:34;25.30;99.90
11840;DHT22;5979;50.800;4.904;2023-07-08T05:20:00;25.40;99.90
11840;DHT22;5979;50.800;4.904;2023-07-08T05:22:27;25.50;99.90
11840;DHT22;5979;50.800;4.904;2023-07-08T05:24:53;25.70;99.90
11840;DHT22;5979;50.800;4.904;2023-07-08T05:27:39;26.00;99.90
11840;DHT22;5979;50.800;4.904;2023-07-08T05:30:07;26.30;99.90
11840;DHT22;5979;50.800;4.904;2023-07-08T05:32:33;26.60;99.90
11840;DHT22;5979;50.800;4.904;2023-07-08T05:34:59;26.80;99.90
11840;DHT22;5979;50.800;4.904;2023-07-08T05:37:24;27.10;99.90
11840;DHT22;5979;50.800;4.904;2023-07-08T05:39:56;27.30;99.90
11840;DHT22;5979;50.800;4.904;2023-07-08T05:42:22;27.40;99.90
11840;DHT22;5979;50.800;4.904;2023-07-08T05:44:48;27.60;99.90
11840;DHT22;5979;50.800;4.904;2023-07-08T05:47:16;27.70;99.90
11840;DHT22;5979;50.800;4.904;2023-07-08T05:49:42;27.90;99.90
11840;DHT22;5979;50.800;4.904;2023-07-08T05:52:11;28.00;99.90
11840;DHT22;5979;50.800;4.904;2023-07-08T05:54:40;28.00;99.90
11840;DHT22;5979;50.800;4.904;2023-07-08T05:57:08;28.10;99.90
11840;DHT22;5979;50.800;4.904;2023-07-08T05:59:35;28.20;99.90
11840;DHT22;5979;50.800;4.904;2023-07-08T06:02:01;28.20;99.90
11840;DHT22;5979;50.800;4.904;2023-07-08T06:04:27;28.40;99.90
11840;DHT22;5979;50.800;4.904;2023-07-08T06:06:53;28.60;99.90
11840;DHT22;5979;50.800;4.904;2023-07-08T06:09:19;28.80;99.90
11840;DHT22;5979;50.800;4.904;2023-07-08T06:11:44;28.90;99.90
11840;DHT22;5979;50.800;4.904;2023-07-08T06:14:10;29.10;99.90
11840;DHT22;5979;50.800;4.904;2023-07-08T06:16:36;29.20;99.90
11840;DHT22;5979;50.800;4.904;2023-07-08T06:19:02;29.20;99.90
11840;DHT22;5979;50.800;4.904;2023-07-08T06:21:27;29.30;99.90
11840;DHT22;5979;50.800;4.904;2023-07-08T06:24:12;29.20;99.90
11840;DHT22;5979;50.800;4.904;2023-07-08T06:26:38;29.40;99.90
11840;DHT22;5979;50.800;4.904;2023-07-08T06:29:04;29.60;99.90
11840;DHT22;5979;50.800;4.904;2023-07-08T06:31:30;29.70;99.90
11840;DHT22;5979;50.800;4.904;2023-07-08T06:33:56;29.90;99.90
11840;DHT22;5979;50.800;4.904;2023-07-08T06:36:22;30.00;99.90
11840;DHT22;5979;50.800;4.904;2023-07-08T06:38:48;29.60;99.90
11840;DHT22;5979;50.800;4.904;2023-07-08T06:41:14;29.40;99.90
11840;DHT22;5979;50.800;4.904;2023-07-08T06:43:40;29.30;99.90
11840;DHT22;5979;50.800;4.904;2023-07-08T06:46:05;29.20;99.90
11840;DHT22;5979;50.800;4.904;2023-07-08T06:48:32;29.00;99.90
11840;DHT22;5979;50.800;4.904;2023-07-08T06:50:58;28.80;99.90
11840;DHT22;5979;50.800;4.904;2023-07-08T06:53:23;28.70;99.90
11840;DHT22;5979;50.800;4.904;2023-07-08T06:55:50;28.70;99.90
11840;DHT22;5979;50.800;4.904;2023-07-08T06:58:16;28.60;99.90
11840;DHT22;5979;50.800;4.904;2023-07-08T07:00:43;28.60;99.90
11840;DHT22;5979;50.800;4.904;2023-07-08T07:03:09;28.60;99.90
11840;DHT22;5979;50.800;4.904;2023-07-08T07:05:35;28.50;99.90
11840;DHT22;5979;50.800;4.904;2023-07-08T07:08:01;28.40;99.90
11840;DHT22;5979;50.800;4.904;2023-07-08T07:10:26;28.40;99.90
11840;DHT22;5979;50.800;4.904;2023-07-08T07:12:52;28.40;99.90
11840;DHT22;5979;50.800;4.904;2023-07-08T07:15:18;28.30;99.90
11840;DHT22;5979;50.800;4.904;2023-07-08T07:17:44;28.40;99.90
11840;DHT22;5979;50.800;4.904;2023-07-08T07:20:11;28.40;99.90
11840;DHT22;5979;50.800;4.904;2023-07-08T07:22:36;28.40;99.90
11840;DHT22;5979;50.800;4.904;2023-07-08T07:25:03;28.40;99.90
11840;DHT22;5979;50.800;4.904;2023-07-08T07:27:29;28.40;99.90
11840;DHT22;5979;50.800;4.904;2023-07-08T07:29:54;28.40;99.90
11840;DHT22;5979;50.800;4.904;2023-07-08T07:32:23;28.40;99.90
11840;DHT22;5979;50.800;4.904;2023-07-08T07:34:50;28.50;99.90
11840;DHT22;5979;50.800;4.904;2023-07-08T07:37:17;28.60;99.90
11840;DHT22;5979;50.800;4.904;2023-07-08T07:39:44;28.60;99.90
11840;DHT22;5979;50.800;4.904;2023-07-08T07:42:11;28.60;99.90
11840;DHT22;5979;50.800;4.904;2023-07-08T07:44:36;28.70;99.90
11840;DHT22;5979;50.800;4.904;2023-07-08T07:47:06;28.60;99.90
11840;DHT22;5979;50.800;4.904;2023-07-08T07:49:32;28.60;99.90
11840;DHT22;5979;50.800;4.904;2023-07-08T07:51:58;28.70;99.90
11840;DHT22;5979;50.800;4.904;2023-07-08T07:54:23;28.70;99.90
11840;DHT22;5979;50.800;4.904;2023-07-08T07:56:49;28.60;99.90
11840;DHT22;5979;50.800;4.904;2023-07-08T07:59:15;28.70;99.90
11840;DHT22;5979;50.800;4.904;2023-07-08T08:01:40;29.00;99.90
11840;DHT22;5979;50.800;4.904;2023-07-08T08:04:10;29.10;99.90
11840;DHT22;5979;50.800;4.904;2023-07-08T08:06:36;29.30;99.90
11840;DHT22;5979;50.800;4.904;2023-07-08T08:09:03;29.40;99.90
11840;DHT22;5979;50.800;4.904;2023-07-08T08:11:29;29.50;99.90
11840;DHT22;5979;50.800;4.904;2023-07-08T08:13:55;29.80;99.90
11840;DHT22;5979;50.800;4.904;2023-07-08T08:16:48;30.10;99.90
11840;DHT22;5979;50.800;4.904;2023-07-08T08:19:14;30.30;99.90
11840;DHT22;5979;50.800;4.904;2023-07-08T08:21:39;30.50;99.90
11840;DHT22;5979;50.800;4.904;2023-07-08T08:24:05;30.70;99.90
11840;DHT22;5979;50.800;4.904;2023-07-08T08:26:31;31.00;99.90
11840;DHT22;5979;50.800;4.904;2023-07-08T08:28:57;31.20;99.90
11840;DHT22;5979;50.800;4.904;2023-07-08T08:31:23;31.40;99.90
11840;DHT22;5979;50.800;4.904;2023-07-08T08:33:51;31.50;99.90
11840;DHT22;5979;50.800;4.904;2023-07-08T08:36:16;31.60;99.90
11840;DHT22;5979;50.800;4.904;2023-07-08T08:38:42;31.60;99.90
11840;DHT22;5979;50.800;4.904;2023-07-08T08:41:17;31.70;99.90
11840;DHT22;5979;50.800;4.904;2023-07-08T08:43:44;31.70;99.90
11840;DHT22;5979;50.800;4.904;2023-07-08T08:46:30;31.80;99.90
11840;DHT22;5979;50.800;4.904;2023-07-08T08:49:23;32.00;99.90
11840;DHT22;5979;50.800;4.904;2023-07-08T08:51:50;32.20;99.90
11840;DHT22;5979;50.800;4.904;2023-07-08T08:54:16;32.20;99.90
11840;DHT22;5979;50.800;4.904;2023-07-08T08:59:57;32.20;99.90
11840;DHT22;5979;50.800;4.904;2023-07-08T09:05:08;32.30;99.90
11840;DHT22;5979;50.800;4.904;2023-07-08T09:08:12;32.40;99.90
11840;DHT22;5979;50.800;4.904;2023-07-08T09:13:32;32.40;99.90
11840;DHT22;5979;50.800;4.904;2023-07-08T09:16:07;32.50;99.90
11840;DHT22;5979;50.800;4.904;2023-07-08T09:18:49;32.60;99.90
11840;DHT22;5979;50.800;4.904;2023-07-08T09:21:23;32.60;99.90
11840;DHT22;5979;50.800;4.904;2023-07-08T09:23:53;32.70;99.90
11840;DHT22;5979;50.800;4.904;2023-07-08T09:26:22;32.70;99.90
11840;DHT22;5979;50.800;4.904;2023-07-08T09:28:49;32.70;99.90
11840;DHT22;5979;50.800;4.904;2023-07-08T09:31:27;32.70;99.90
11840;DHT22;5979;50.800;4.904;2023-07-08T09:34:14;33.00;99.90
11840;DHT22;5979;50.800;4.904;2023-07-08T09:36:47;33.10;99.90
11840;DHT22;5979;50.800;4.904;2023-07-08T09:39:19;33.10;99.90
11840;DHT22;5979;50.800;4.904;2023-07-08T09:41:46;33.10;99.90
11840;DHT22;5979;50.800;4.904;2023-07-08T09:46:38;33.10;99.90
11840;DHT22;5979;50.800;4.904;2023-07-08T09:49:17;33.00;99.90
11840;DHT22;5979;50.800;4.904;2023-07-08T09:51:44;33.00;99.90
11840;DHT22;5979;50.800;4.904;2023-07-08T09:54:10;32.90;99.90
11840;DHT22;5979;50.800;4.904;2023-07-08T09:56:41;33.00;99.90
11840;DHT22;5979;50.800;4.904;2023-07-08T09:59:13;33.00;99.90
11840;DHT22;5979;50.800;4.904;2023-07-08T10:01:40;32.80;99.90
11840;DHT22;5979;50.800;4.904;2023-07-08T10:04:06;32.90;99.90
11840;DHT22;5979;50.800;4.904;2023-07-08T10:06:33;32.70;99.90
11840;DHT22;5979;50.800;4.904;2023-07-08T10:09:03;32.60;99.90
11840;DHT22;5979;50.800;4.904;2023-07-08T10:11:39;32.50;99.90
11840;DHT22;5979;50.800;4.904;2023-07-08T10:16:50;32.70;99.90
11840;DHT22;5979;50.800;4.904;2023-07-08T10:19:18;32.80;99.90
11840;DHT22;5979;50.800;4.904;2023-07-08T10:29:37;33.30;99.90
11840;DHT22;5979;50.800;4.904;2023-07-08T10:35:01;33.60;99.90
11840;DHT22;5979;50.800;4.904;2023-07-08T10:40:34;33.90;99.90
11840;DHT22;5979;50.800;4.904;2023-07-08T10:43:07;34.00;99.90
11840;DHT22;5979;50.800;4.904;2023-07-08T10:51:30;33.90;99.90
11840;DHT22;5979;50.800;4.904;2023-07-08T10:57:06;34.10;99.90
11840;DHT22;5979;50.800;4.904;2023-07-08T11:10:27;34.00;99.90
11840;DHT22;5979;50.800;4.904;2023-07-08T11:13:11;33.80;99.30
11840;DHT22;5979;50.800;4.904;2023-07-08T11:16:06;34.00;99.90
11840;DHT22;5979;50.800;4.904;2023-07-08T11:21:40;34.40;99.90
11840;DHT22;5979;50.800;4.904;2023-07-08T11:27:00;34.40;99.40
11840;DHT22;5979;50.800;4.904;2023-07-08T11:29:37;34.40;99.20
11840;DHT22;5979;50.800;4.904;2023-07-08T11:32:06;34.20;98.70
11840;DHT22;5979;50.800;4.904;2023-07-08T11:34:34;34.20;99.00
11840;DHT22;5979;50.800;4.904;2023-07-08T11:37:02;34.20;98.60
11840;DHT22;5979;50.800;4.904;2023-07-08T11:39:38;34.30;99.20
11840;DHT22;5979;50.800;4.904;2023-07-08T11:42:43;34.50;99.90
11840;DHT22;5979;50.800;4.904;2023-07-08T11:45:34;34.70;99.90
11840;DHT22;5979;50.800;4.904;2023-07-08T11:48:12;34.80;99.90
11840;DHT22;5979;50.800;4.904;2023-07-08T11:50:42;34.90;99.90
11840;DHT22;5979;50.800;4.904;2023-07-08T11:53:13;34.90;98.60
11840;DHT22;5979;50.800;4.904;2023-07-08T11:58:27;35.00;99.90
11840;DHT22;5979;50.800;4.904;2023-07-08T12:08:53;34.90;99.70
11840;DHT22;5979;50.800;4.904;2023-07-08T12:11:27;34.90;98.40
11840;DHT22;5979;50.800;4.904;2023-07-08T12:13:55;35.00;99.70
11840;DHT22;5979;50.800;4.904;2023-07-08T12:16:21;35.10;99.30
11840;DHT22;5979;50.800;4.904;2023-07-08T12:18:48;35.20;99.70
11840;DHT22;5979;50.800;4.904;2023-07-08T12:21:15;35.20;99.70
11840;DHT22;5979;50.800;4.904;2023-07-08T12:23:46;35.30;97.60
11840;DHT22;5979;50.800;4.904;2023-07-08T12:26:12;35.20;98.30
11840;DHT22;5979;50.800;4.904;2023-07-08T12:28:42;35.00;98.60
11840;DHT22;5979;50.800;4.904;2023-07-08T12:31:19;34.80;98.40
11840;DHT22;5979;50.800;4.904;2023-07-08T12:33:46;34.50;99.40
11840;DHT22;5979;50.800;4.904;2023-07-08T12:36:18;34.20;99.90
11840;DHT22;5979;50.800;4.904;2023-07-08T12:38:45;34.00;99.90
11840;DHT22;5979;50.800;4.904;2023-07-08T12:41:15;33.80;99.90
11840;DHT22;5979;50.800;4.904;2023-07-08T12:43:40;33.60;99.90
11840;DHT22;5979;50.800;4.904;2023-07-08T12:46:09;33.40;99.90
11840;DHT22;5979;50.800;4.904;2023-07-08T12:48:35;33.30;99.90
11840;DHT22;5979;50.800;4.904;2023-07-08T12:51:11;33.20;99.90
11840;DHT22;5979;50.800;4.904;2023-07-08T12:53:37;32.90;99.90
11840;DHT22;5979;50.800;4.904;2023-07-08T12:56:03;32.80;99.90
11840;DHT22;5979;50.800;4.904;2023-07-08T12:58:31;32.70;99.90
11840;DHT22;5979;50.800;4.904;2023-07-08T13:01:00;32.50;99.90
11840;DHT22;5979;50.800;4.904;2023-07-08T13:03:29;32.30;99.90
11840;DHT22;5979;50.800;4.904;2023-07-08T13:05:56;31.90;99.90
11840;DHT22;5979;50.800;4.904;2023-07-08T13:08:26;31.50;99.90
11840;DHT22;5979;50.800;4.904;2023-07-08T13:10:57;31.30;99.90
11840;DHT22;5979;50.800;4.904;2023-07-08T13:13:26;31.00;99.90
11840;DHT22;5979;50.800;4.904;2023-07-08T13:15:54;30.70;99.90
11840;DHT22;5979;50.800;4.904;2023-07-08T13:18:31;30.40;99.90
11840;DHT22;5979;50.800;4.904;2023-07-08T13:20:58;30.10;99.90
11840;DHT22;5979;50.800;4.904;2023-07-08T13:23:26;29.90;99.90
11840;DHT22;5979;50.800;4.904;2023-07-08T13:25:53;29.70;99.90
11840;DHT22;5979;50.800;4.904;2023-07-08T13:28:27;29.50;99.90
11840;DHT22;5979;50.800;4.904;2023-07-08T13:30:55;29.30;99.90
11840;DHT22;5979;50.800;4.904;2023-07-08T13:33:22;29.10;99.90
11840;DHT22;5979;50.800;4.904;2023-07-08T13:35:50;29.00;99.90
11840;DHT22;5979;50.800;4.904;2023-07-08T13:38:19;28.90;99.90
11840;DHT22;5979;50.800;4.904;2023-07-08T13:40:48;28.90;99.90
11840;DHT22;5979;50.800;4.904;2023-07-08T13:43:15;29.10;99.90
11840;DHT22;5979;50.800;4.904;2023-07-08T13:45:45;29.40;99.90
11840;DHT22;5979;50.800;4.904;2023-07-08T13:48:29;29.70;99.90
11840;DHT22;5979;50.800;4.904;2023-07-08T13:53:47;30.50;99.90
11840;DHT22;5979;50.800;4.904;2023-07-08T13:56:23;30.80;99.90
11840;DHT22;5979;50.800;4.904;2023-07-08T13:58:51;31.20;99.90
11840;DHT22;5979;50.800;4.904;2023-07-08T14:01:24;31.50;99.90
11840;DHT22;5979;50.800;4.904;2023-07-08T14:03:52;31.70;99.90
11840;DHT22;5979;50.800;4.904;2023-07-08T14:06:24;32.00;99.90
11840;DHT22;5979;50.800;4.904;2023-07-08T14:08:56;32.10;99.90
11840;DHT22;5979;50.800;4.904;2023-07-08T14:11:22;32.40;99.90
11840;DHT22;5979;50.800;4.904;2023-07-08T14:13:48;32.50;99.90
11840;DHT22;5979;50.800;4.904;2023-07-08T14:16:29;32.70;99.90
11840;DHT22;5979;50.800;4.904;2023-07-08T14:18:57;32.80;99.90
11840;DHT22;5979;50.800;4.904;2023-07-08T14:21:23;32.80;99.90
11840;DHT22;5979;50.800;4.904;2023-07-08T14:23:49;32.90;99.90
11840;DHT22;5979;50.800;4.904;2023-07-08T14:26:15;33.00;99.90
11840;DHT22;5979;50.800;4.904;2023-07-08T14:28:41;33.10;99.90
11840;DHT22;5979;50.800;4.904;2023-07-08T14:31:11;33.20;99.90
11840;DHT22;5979;50.800;4.904;2023-07-08T14:33:38;33.40;99.90
11840;DHT22;5979;50.800;4.904;2023-07-08T14:36:13;33.50;99.90
11840;DHT22;5979;50.800;4.904;2023-07-08T14:38:40;33.70;99.90
11840;DHT22;5979;50.800;4.904;2023-07-08T14:41:06;33.90;99.90
11840;DHT22;5979;50.800;4.904;2023-07-08T14:43:33;34.00;99.90
11840;DHT22;5979;50.800;4.904;2023-07-08T14:46:04;34.00;99.90
11840;DHT22;5979;50.800;4.904;2023-07-08T14:48:31;34.10;99.90
11840;DHT22;5979;50.800;4.904;2023-07-08T14:50:58;34.10;99.90
11840;DHT22;5979;50.800;4.904;2023-07-08T14:53:23;34.10;99.90
11840;DHT22;5979;50.800;4.904;2023-07-08T14:55:52;34.00;99.90
11840;DHT22;5979;50.800;4.904;2023-07-08T14:58:28;34.00;99.90
11840;DHT22;5979;50.800;4.904;2023-07-08T15:00:56;33.90;99.90
11840;DHT22;5979;50.800;4.904;2023-07-08T15:03:26;33.90;99.90
11840;DHT22;5979;50.800;4.904;2023-07-08T15:05:52;34.00;99.90
11840;DHT22;5979;50.800;4.904;2023-07-08T15:08:18;34.00;99.90
11840;DHT22;5979;50.800;4.904;2023-07-08T15:10:49;34.00;99.90
11840;DHT22;5979;50.800;4.904;2023-07-08T15:13:18;34.10;99.90
11840;DHT22;5979;50.800;4.904;2023-07-08T15:15:45;34.00;99.90
11840;DHT22;5979;50.800;4.904;2023-07-08T15:18:13;33.90;99.90
11840;DHT22;5979;50.800;4.904;2023-07-08T15:20:39;33.80;99.90
11840;DHT22;5979;50.800;4.904;2023-07-08T15:23:05;33.70;99.90
11840;DHT22;5979;50.800;4.904;2023-07-08T15:25:31;33.60;99.90
11840;DHT22;5979;50.800;4.904;2023-07-08T15:28:00;33.50;99.90
11840;DHT22;5979;50.800;4.904;2023-07-08T15:30:28;33.40;99.90
11840;DHT22;5979;50.800;4.904;2023-07-08T15:32:55;33.30;99.90
11840;DHT22;5979;50.800;4.904;2023-07-08T15:35:27;33.20;99.90
11840;DHT22;5979;50.800;4.904;2023-07-08T15:37:56;33.10;99.90
11840;DHT22;5979;50.800;4.904;2023-07-08T15:40:23;33.00;99.90
11840;DHT22;5979;50.800;4.904;2023-07-08T15:42:54;33.00;99.90
11840;DHT22;5979;50.800;4.904;2023-07-08T15:45:29;32.90;99.90
11840;DHT22;5979;50.800;4.904;2023-07-08T15:47:56;32.90;99.90
11840;DHT22;5979;50.800;4.904;2023-07-08T15:50:23;32.90;99.90
11840;DHT22;5979;50.800;4.904;2023-07-08T15:52:50;32.80;99.90
11840;DHT22;5979;50.800;4.904;2023-07-08T15:55:25;32.70;99.90
11840;DHT22;5979;50.800;4.904;2023-07-08T15:58:17;32.70;99.90
11840;DHT22;5979;50.800;4.904;2023-07-08T16:00:44;32.80;99.90
11840;DHT22;5979;50.800;4.904;2023-07-08T16:03:21;32.80;99.90
11840;DHT22;5979;50.800;4.904;2023-07-08T16:05:47;32.80;99.90
11840;DHT22;5979;50.800;4.904;2023-07-08T16:08:16;32.80;99.90
11840;DHT22;5979;50.800;4.904;2023-07-08T16:10:44;32.70;99.90
11840;DHT22;5979;50.800;4.904;2023-07-08T16:13:12;32.80;99.90
11840;DHT22;5979;50.800;4.904;2023-07-08T16:15:38;32.90;99.90
11840;DHT22;5979;50.800;4.904;2023-07-08T16:18:05;33.00;99.90
11840;DHT22;5979;50.800;4.904;2023-07-08T16:20:34;33.00;99.90
11840;DHT22;5979;50.800;4.904;2023-07-08T16:23:00;33.00;99.90
11840;DHT22;5979;50.800;4.904;2023-07-08T16:25:32;33.20;99.90
11840;DHT22;5979;50.800;4.904;2023-07-08T16:27:59;33.10;99.90
11840;DHT22;5979;50.800;4.904;2023-07-08T16:30:26;33.10;99.90
11840;DHT22;5979;50.800;4.904;2023-07-08T16:32:52;33.00;99.90
11840;DHT22;5979;50.800;4.904;2023-07-08T16:35:19;32.90;99.90
11840;DHT22;5979;50.800;4.904;2023-07-08T16:37:48;32.80;99.90
11840;DHT22;5979;50.800;4.904;2023-07-08T16:40:20;32.70;99.90
11840;DHT22;5979;50.800;4.904;2023-07-08T16:42:48;32.70;99.90
11840;DHT22;5979;50.800;4.904;2023-07-08T16:45:16;32.70;99.90
11840;DHT22;5979;50.800;4.904;2023-07-08T16:47:44;32.70;99.90
11840;DHT22;5979;50.800;4.904;2023-07-08T16:50:11;32.70;99.90
11840;DHT22;5979;50.800;4.904;2023-07-08T16:52:37;32.70;99.90
11840;DHT22;5979;50.800;4.904;2023-07-08T16:55:15;32.70;99.90
11840;DHT22;5979;50.800;4.904;2023-07-08T16:57:41;32.60;99.90
11840;DHT22;5979;50.800;4.904;2023-07-08T17:00:17;32.60;99.90
11840;DHT22;5979;50.800;4.904;2023-07-08T17:02:44;32.60;99.90
11840;DHT22;5979;50.800;4.904;2023-07-08T17:05:20;32.50;99.90
11840;DHT22;5979;50.800;4.904;2023-07-08T17:07:47;32.50;99.90
11840;DHT22;5979;50.800;4.904;2023-07-08T17:10:13;32.40;99.90
11840;DHT22;5979;50.800;4.904;2023-07-08T17:12:39;32.40;99.90